Flight Track Log - Related Links

Times and Time Zones

All times are in EDT time to prevent confusion due to time zone crossing. See the EJA982 flight status page for this flight to view local times or setup timezone preferences in your user account.

Time Position Orientation Groundspeed Altitude Reporting Facility
EDT Latitude Longitude Course Direction KTS MPH feet Rate Location/Type
Fri 03:48:11 PM 47.4753 -122.3111 360° North 170 196 1,600  Level Seattle Center
Fri 03:49:03 PM 47.5272 -122.3108 360° North 221 254 4,000 3,288 Climbing Seattle Center
Fri 03:49:24 PM 47.5558 -122.3128 357° North 262 302 5,600 4,033 Climbing Seattle Center
Fri 03:50:04 PM 47.5997 -122.3019 North 262 302 8,100 3,491 Climbing Seattle Center
Fri 03:50:19 PM 47.6139 -122.2872 35° Northeast 278 320 8,800 885 Climbing Seattle Center
Fri 03:51:05 PM 47.6592 -122.2289 41° Northeast 278 320 9,000 590 Climbing Seattle Center
Fri 03:51:20 PM 47.6717 -122.1992 58° Northeast 282 325 9,400 2,361 Climbing Seattle Center
Fri 03:52:06 PM 47.6542 -122.1111 106° East 292 336 11,400 2,636 Climbing Seattle Center
Fri 03:53:07 PM 47.6206 -121.9942 113° Southeast 307 353 14,100 2,311 Climbing Seattle Center
Fri 03:54:08 PM 47.5511 -121.8967 137° Southeast 344 396 16,100 1,770 Climbing Seattle Center
Fri 03:55:09 PM 47.4761 -121.7892 136° Southeast 372 428 17,700 1,574 Climbing Seattle Center
Fri 03:56:10 PM 47.4272 -121.6672 121° Southeast 386 444 19,300 1,672 Climbing Seattle Center
Fri 03:57:11 PM 47.4247 -121.5094 91° East 388 447 21,100 1,918 Climbing Seattle Center
Fri 03:58:12 PM 47.4217 -121.3153 91° East 398 458 23,200 1,887 Climbing Seattle Center
Fri 03:59:15 PM 47.4206 -121.1461 90° East 409 471 25,000 1,742 Climbing Seattle Center
Fri 04:00:16 PM 47.4167 -120.9733 92° East 424 488 26,800 1,770 Climbing Seattle Center
Fri 04:01:17 PM 47.4139 -120.7931 91° East 431 496 28,600 1,770 Climbing Seattle Center
Fri 04:02:18 PM 47.4086 -120.6167 92° East 432 497 30,400 1,770 Climbing Seattle Center
Fri 04:03:19 PM 47.4053 -120.4381 92° East 436 502 32,200 1,672 Climbing Seattle Center
Fri 04:04:20 PM 47.3775 -120.2606 103° East 446 513 33,800 1,574 Climbing Seattle Center
Fri 04:05:21 PM 47.3469 -120.0794 104° East 455 524 35,400 1,574 Climbing Seattle Center
Fri 04:06:22 PM 47.3153 -119.8992 104° East 456 525 37,000 1,377 Climbing Seattle Center
Fri 04:07:23 PM 47.2825 -119.7197 105° East 455 524 38,200 829 Climbing Seattle Center
Fri 04:08:25 PM 47.2425 -119.5022 105° East 461 531 38,700 488 Climbing Seattle Center
Fri 04:09:26 PM 47.2103 -119.3111 104° East 478 550 39,200 492 Climbing Seattle Center
Fri 04:10:27 PM 47.1969 -119.1158 96° East 481 554 39,700 492 Climbing Seattle Center
Fri 04:11:28 PM 47.1892 -118.9203 93° East 482 555 40,200 541 Climbing Seattle Center
Fri 04:12:29 PM 47.1786 -118.7225 94° East 486 559 40,800 393 Climbing Seattle Center
Fri 04:13:30 PM 47.1692 -118.5269 94° East 484 557 41,000 49 Climbing Seattle Center
Fri 04:14:31 PM 47.1586 -118.3289 94° East 486 559 40,900  Descending Seattle Center
Fri 04:15:32 PM 47.1450 -118.1258 96° East 494 568 41,000 49 Climbing Seattle Center
Fri 04:16:33 PM 47.1331 -117.9225 95° East 501 577 41,000  Level Seattle Center
Fri 04:17:34 PM 47.1192 -117.7158 96° East 510 587 41,000  Level Seattle Center
Fri 04:18:35 PM 47.1042 -117.4672 95° East 514 592 41,000  Level Seattle Center
Fri 04:19:36 PM 47.0906 -117.2581 95° East 521 600 41,000  Level Seattle Center
Fri 04:20:37 PM 47.0644 -117.0508 100° East 521 600 41,000  Level Seattle Center
Fri 04:21:39 PM 47.0272 -116.8464 105° East 524 603 41,000  Level Seattle Center
Fri 04:22:40 PM 46.9897 -116.6431 105° East 523 602 41,000  Level Seattle Center
Fri 04:23:41 PM 46.9522 -116.4403 105° East 521 600 41,000  Level Seattle Center
Fri 04:24:42 PM 46.9142 -116.2392 105° East 519 597 41,000  Level Seattle Center
Fri 04:25:43 PM 46.8756 -116.0367 106° East 518 596 41,000  Level Seattle Center
Fri 04:26:44 PM 46.8292 -115.7956 106° East 517 595 41,000  Level Seattle Center
Fri 04:27:45 PM 46.7900 -115.5942 106° East 517 595 41,000  Level Seattle Center
Fri 04:28:46 PM 46.7486 -115.3850 106° East 516 594 41,000  Level Seattle Center
Fri 04:29:47 PM 46.7089 -115.1817 106° East 522 601 41,000  Level Seattle Center
Fri 04:30:29 PM 46.6847 -115.0619 106° East 520 598 41,000  Level Salt Lake Center
Fri 04:31:31 PM 46.6442 -114.8628 106° East 517 595 41,000  Level Salt Lake Center
Fri 04:32:32 PM 46.6047 -114.6639 106° East 515 593 41,000  Level Salt Lake Center
Fri 04:33:33 PM 46.5550 -114.4261 107° East 515 593 41,000  Level Salt Lake Center
Fri 04:34:35 PM 46.5133 -114.2275 107° East 515 593 41,000  Level Salt Lake Center
Fri 04:35:36 PM 46.4722 -114.0308 107° East 513 590 41,000  Level Salt Lake Center
Fri 04:36:38 PM 46.4297 -113.8328 107° East 516 594 41,000  Level Salt Lake Center
Fri 04:37:39 PM 46.3875 -113.6350 107° East 517 595 41,000  Level Salt Lake Center
Fri 04:38:41 PM 46.3436 -113.4369 108° East 518 596 41,000  Level Salt Lake Center
Fri 04:39:42 PM 46.2994 -113.2403 108° East 520 598 41,000  Level Salt Lake Center
Fri 04:40:44 PM 46.2464 -113.0008 108° East 522 601 41,000  Level Salt Lake Center
Fri 04:41:45 PM 46.2006 -112.8044 109° East 517 595 41,000  Level Salt Lake Center
Fri 04:42:47 PM 46.1583 -112.6036 107° East 523 602 41,000  Level Salt Lake Center
Fri 04:43:48 PM 46.1136 -112.4050 108° East 522 601 41,000  Level Salt Lake Center
Fri 04:44:49 PM 46.0669 -112.2083 109° East 520 598 41,000  Level Salt Lake Center
Fri 04:45:51 PM 46.0217 -112.0106 108° East 520 598 41,000  Level Salt Lake Center
Fri 04:46:52 PM 45.9753 -111.8139 109° East 522 601 41,000  Level Salt Lake Center
Fri 04:47:54 PM 45.9297 -111.6158 108° East 522 601 41,000  Level Salt Lake Center
Fri 04:48:56 PM 45.8822 -111.4181 109° East 523 602 41,000  Level Salt Lake Center
Fri 04:49:57 PM 45.8356 -111.2203 109° East 521 600 41,000  Level Salt Lake Center
Fri 04:50:59 PM 45.7833 -111.0069 109° East 523 602 41,000  Level Salt Lake Center
Fri 04:52:00 PM 45.7353 -110.8097 109° East 522 601 41,000  Level Salt Lake Center
Fri 04:53:02 PM 45.6875 -110.6156 109° East 519 597 41,000  Level Salt Lake Center
Fri 04:54:03 PM 45.6314 -110.3892 109° East 517 595 41,000  Level Salt Lake Center
Fri 04:55:05 PM 45.5836 -110.2019 110° East 523 602 41,000  Level Salt Lake Center
Fri 04:56:06 PM 45.5278 -109.9850 110° East 522 601 41,000  Level Salt Lake Center
Fri 04:57:08 PM 45.4811 -109.7964 109° East 527 606 41,000  Level Salt Lake Center
Fri 04:58:09 PM 45.4336 -109.6083 110° East 526 605 41,000  Level Salt Lake Center
Fri 04:59:11 PM 45.3753 -109.3883 111° Southeast 532 612 41,000  Level Salt Lake Center
Fri 05:00:12 PM 45.3253 -109.1994 111° Southeast 534 615 41,000  Level Salt Lake Center
Fri 05:01:14 PM 45.2664 -108.9789 111° Southeast 534 615 41,000  Level Salt Lake Center
Fri 05:02:15 PM 45.2164 -108.7900 111° Southeast 535 616 41,000  Level Salt Lake Center
Fri 05:03:17 PM 45.1650 -108.5994 111° Southeast 539 620 41,000  Level Salt Lake Center
Fri 05:04:19 PM 45.1056 -108.3800 111° Southeast 538 619 41,000  Level Salt Lake Center
Fri 05:05:20 PM 45.0553 -108.1928 111° Southeast 529 609 41,000  Level Salt Lake Center
Fri 05:06:22 PM 44.9958 -107.9744 111° Southeast 527 606 41,000  Level Salt Lake Center
Fri 05:07:23 PM 44.9422 -107.7831 112° Southeast 534 615 41,000  Level Salt Lake Center
Fri 05:08:25 PM 44.8883 -107.5953 112° Southeast 532 612 41,000  Level Salt Lake Center
Fri 05:09:26 PM 44.8267 -107.3803 112° Southeast 527 606 41,000  Level Salt Lake Center
Fri 05:10:28 PM 44.7750 -107.1958 111° Southeast 527 606 41,000  Level Salt Lake Center
Fri 05:11:30 PM 44.7225 -107.0131 112° Southeast 527 606 41,000  Level Salt Lake Center
Fri 05:12:31 PM 44.6614 -106.8014 112° Southeast 524 603 41,000  Level Salt Lake Center
Fri 05:13:33 PM 44.6089 -106.6197 112° Southeast 525 604 41,000  Level Salt Lake Center
Fri 05:14:34 PM 44.5461 -106.4100 113° Southeast 523 602 41,000  Level Salt Lake Center
Fri 05:15:36 PM 44.4931 -106.2303 112° Southeast 522 601 41,000  Level Salt Lake Center
Fri 05:16:37 PM 44.4367 -106.0408 113° Southeast 521 600 41,000  Level Salt Lake Center
Fri 05:17:39 PM 44.3833 -105.8603 112° Southeast 525 604 41,000  Level Salt Lake Center
Fri 05:18:41 PM 44.3203 -105.6531 113° Southeast 520 598 41,000  Level Salt Lake Center
Fri 05:19:42 PM 44.2672 -105.4719 112° Southeast 525 604 41,000  Level Salt Lake Center
Fri 05:20:44 PM 44.2017 -105.2653 114° Southeast 523 602 41,000  Level Salt Lake Center
Fri 05:21:46 PM 44.1467 -105.0883 113° Southeast 521 600 41,000  Level Salt Lake Center
Fri 05:22:47 PM 44.0822 -104.8794 113° Southeast 523 602 41,000  Level Salt Lake Center
Fri 05:23:57 PM 44.0158 -104.6722 114° Southeast 524 603 41,000  Level Denver Center
Fri 05:24:59 PM 43.9594 -104.4964 114° Southeast 522 601 41,000  Level Denver Center
Fri 05:26:00 PM 43.8944 -104.2906 114° Southeast 520 598 41,000  Level Denver Center
Fri 05:27:02 PM 43.8381 -104.1156 114° Southeast 518 596 41,000  Level Denver Center
Fri 05:28:16 PM 43.7811 -103.9392 114° Southeast 522 601 41,000  Level Denver Center
Fri 05:29:18 PM 43.7050 -103.7058 114° Southeast 523 602 41,000  Level Denver Center
Fri 05:30:33 PM 43.6281 -103.4714 114° Southeast 525 604 41,000  Level Denver Center
Fri 05:31:35 PM 43.5703 -103.2969 115° Southeast 522 601 41,000  Level Denver Center
Fri 05:32:37 PM 43.4997 -103.0889 115° Southeast 531 611 41,000  Level Denver Center
Fri 05:33:39 PM 43.4411 -102.9144 115° Southeast 526 605 41,000  Level Denver Center
Fri 05:34:41 PM 43.3717 -102.7100 115° Southeast 529 609 41,000  Level Denver Center
Fri 05:35:43 PM 43.3111 -102.5358 115° Southeast 528 608 41,000  Level Denver Center
Fri 05:36:57 PM 43.2417 -102.3328 115° Southeast 526 605 41,000  Level Denver Center
Fri 05:37:59 PM 43.1731 -102.1322 115° Southeast 522 601 41,000  Level Denver Center
Fri 05:39:01 PM 43.1017 -101.9319 116° Southeast 524 603 41,000  Level Denver Center
Fri 05:40:03 PM 43.0386 -101.7494 115° Southeast 524 603 41,000  Level Denver Center
Fri 05:41:05 PM 42.9764 -101.5772 116° Southeast 527 606 41,000  Level Denver Center
Fri 05:42:07 PM 42.9133 -101.3964 115° Southeast 529 609 41,000  Level Denver Center
Fri 05:43:09 PM 42.8361 -101.1819 116° Southeast 527 606 41,000  Level Denver Center
Fri 05:44:24 PM 42.7581 -100.9669 116° Southeast 528 608 41,000  Level Denver Center
Fri 05:45:26 PM 42.6883 -100.7744 116° Southeast 526 605 41,000  Level Denver Center
Fri 05:46:28 PM 42.6253 -100.6017 116° Southeast 531 611 41,000  Level Denver Center
Fri 05:47:30 PM 42.5631 -100.4336 117° Southeast 524 603 41,000  Level Denver Center
Fri 05:48:32 PM 42.4889 -100.2350 117° Southeast 526 605 41,000  Level Denver Center
Fri 05:49:34 PM 42.4258 -100.0672 117° Southeast 523 602 41,000  Level Denver Center
Fri 05:50:35 PM 42.3531 -99.8719 117° Southeast 520 598 41,000  Level Denver Center
Fri 05:51:38 PM 42.2903 -99.7067 117° Southeast 516 594 41,000  Level Denver Center
Fri 05:52:40 PM 42.2244 -99.5325 117° Southeast 512 589 41,000  Level Denver Center
Fri 05:53:42 PM 42.1589 -99.3631 118° Southeast 509 586 41,000  Level Denver Center
Fri 05:54:07 PM 42.1331 -99.2936 117° Southeast 512 589 41,000  Level Minneapolis Center
Fri 05:54:44 PM 42.0931 -99.1908 118° Southeast 514 592 41,000  Level Denver Center
Fri 05:55:09 PM 42.0539 -99.0872 117° Southeast 515 593 41,000  Level Minneapolis Center
Fri 05:56:10 PM 41.9864 -98.9142 118° Southeast 519 597 41,000  Level Minneapolis Center
Fri 05:57:12 PM 41.9197 -98.7414 117° Southeast 519 597 41,000  Level Minneapolis Center
Fri 05:58:14 PM 41.8514 -98.5700 118° Southeast 519 597 41,000  Level Minneapolis Center
Fri 05:59:16 PM 41.7833 -98.3994 118° Southeast 517 595 41,000  Level Minneapolis Center
Fri 06:00:17 PM 41.7161 -98.2275 118° Southeast 517 595 41,000  Level Minneapolis Center
Fri 06:01:19 PM 41.6453 -98.0508 118° Southeast 516 594 41,000  Level Minneapolis Center
Fri 06:02:21 PM 41.5769 -97.8825 118° Southeast 517 595 41,000  Level Minneapolis Center
Fri 06:03:23 PM 41.5083 -97.7150 119° Southeast 515 593 41,000  Level Minneapolis Center
Fri 06:04:24 PM 41.4408 -97.5464 118° Southeast 517 595 41,000  Level Minneapolis Center
Fri 06:05:26 PM 41.3711 -97.3794 119° Southeast 517 595 41,000  Level Minneapolis Center
Fri 06:06:28 PM 41.2900 -97.1817 119° Southeast 513 590 41,000  Level Minneapolis Center
Fri 06:07:30 PM 41.2214 -97.0192 119° Southeast 509 586 41,000  Level Minneapolis Center
Fri 06:08:31 PM 41.1553 -96.8558 118° Southeast 506 582 41,000  Level Minneapolis Center
Fri 06:09:33 PM 41.0875 -96.6950 119° Southeast 505 581 41,000  Level Minneapolis Center
Fri 06:10:35 PM 41.0200 -96.5336 119° Southeast 504 580 41,000  Level Minneapolis Center
Fri 06:11:37 PM 40.9531 -96.3750 119° Southeast 501 577 41,000  Level Minneapolis Center
Fri 06:12:38 PM 40.8719 -96.1844 119° Southeast 500 575 41,000  Level Minneapolis Center
Fri 06:13:40 PM 40.8039 -96.0264 120° Southeast 500 575 41,000  Level Minneapolis Center
Fri 06:14:42 PM 40.7350 -95.8672 120° Southeast 501 577 41,000  Level Minneapolis Center
Fri 06:15:44 PM 40.6672 -95.7089 119° Southeast 500 575 41,000  Level Minneapolis Center
Fri 06:16:46 PM 40.5986 -95.5486 119° Southeast 503 579 41,000  Level Minneapolis Center
Fri 06:17:47 PM 40.5294 -95.3897 120° Southeast 503 579 41,000  Level Minneapolis Center
Fri 06:18:49 PM 40.4469 -95.1994 120° Southeast 502 578 41,000  Level Minneapolis Center
Fri 06:19:51 PM 40.3769 -95.0422 120° Southeast 501 577 41,000  Level Minneapolis Center
Fri 06:20:53 PM 40.3061 -94.8861 121° Southeast 500 575 41,000  Level Minneapolis Center
Fri 06:21:55 PM 40.2369 -94.7281 120° Southeast 501 577 41,000  Level Minneapolis Center
Fri 06:22:57 PM 40.1667 -94.5708 120° Southeast 501 577 41,000  Level Minneapolis Center
Fri 06:23:59 PM 40.0897 -94.4017 121° Southeast 502 578 41,000  Level Minneapolis Center
Fri 06:25:01 PM 40.0197 -94.2478 121° Southeast 498 573 41,000  Level Minneapolis Center
Fri 06:26:02 PM 39.9478 -94.0942 121° Southeast 499 574 41,000  Level Minneapolis Center
Fri 06:27:04 PM 39.8792 -93.9411 120° Southeast 496 571 41,000  Level Minneapolis Center
Fri 06:28:06 PM 39.7958 -93.7600 121° Southeast 492 566 41,000  Level Minneapolis Center
Fri 06:29:08 PM 39.7244 -93.6094 122° Southeast 493 567 41,000  Level Minneapolis Center
Fri 06:30:10 PM 39.6550 -93.4575 121° Southeast 493 567 41,000  Level Minneapolis Center
Fri 06:31:12 PM 39.5833 -93.3061 122° Southeast 495 570 41,000  Level Minneapolis Center
Fri 06:32:27 PM 39.4839 -93.0958 121° Southeast 495 570 41,000  Level Kansas City Center
Fri 06:33:29 PM 39.4128 -92.9456 121° Southeast 495 570 41,000  Level Kansas City Center
Fri 06:34:31 PM 39.3417 -92.7944 121° Southeast 497 572 41,000  Level Kansas City Center
Fri 06:35:33 PM 39.2697 -92.6475 122° Southeast 493 567 41,000  Level Kansas City Center
Fri 06:36:35 PM 39.1903 -92.4825 122° Southeast 493 567 41,000  Level Kansas City Center
Fri 06:37:37 PM 39.1183 -92.3297 121° Southeast 495 570 41,000  Level Kansas City Center
Fri 06:38:39 PM 39.0450 -92.1789 122° Southeast 493 567 41,000  Level Kansas City Center
Fri 06:39:41 PM 38.9717 -92.0292 122° Southeast 493 567 41,000  Level Kansas City Center
Fri 06:40:43 PM 38.8839 -91.8500 122° Southeast 491 565 41,000  Level Kansas City Center
Fri 06:41:45 PM 38.8106 -91.6997 122° Southeast 493 567 41,000  Level Kansas City Center
Fri 06:42:47 PM 38.7411 -91.5606 123° Southeast 492 566 41,000  Level Kansas City Center
Fri 06:43:49 PM 38.6619 -91.4025 123° Southeast 492 566 41,000  Level Kansas City Center
Fri 06:44:51 PM 38.5953 -91.2675 122° Southeast 490 564 41,000  Level Kansas City Center
Fri 06:45:53 PM 38.5067 -91.0917 123° Southeast 494 568 41,000 339 Level Kansas City Center
Fri 06:46:55 PM 38.4339 -90.9478 123° Southeast 490 564 41,700 774 Climbing Kansas City Center
Fri 06:47:57 PM 38.3625 -90.8061 123° Southeast 484 557 42,600 629 Climbing Kansas City Center
Fri 06:48:59 PM 38.2917 -90.6683 123° Southeast 475 547 43,000 194 Climbing Kansas City Center
Fri 06:50:01 PM 38.2203 -90.5283 123° Southeast 475 547 43,000  Level Kansas City Center
Fri 06:51:04 PM 38.1322 -90.3569 123° Southeast 484 557 43,000  Level Kansas City Center
Fri 06:52:06 PM 38.0581 -90.2114 123° Southeast 493 567 43,000  Level Kansas City Center
Fri 06:53:08 PM 37.9844 -90.0683 123° Southeast 490 564 43,000  Level Kansas City Center
Fri 06:54:10 PM 37.8989 -89.9042 123° Southeast 493 567 43,000  Level Kansas City Center
Fri 06:55:12 PM 37.8342 -89.7803 123° Southeast 493 567 43,000  Level Kansas City Center
Fri 06:56:14 PM 37.7444 -89.6058 123° Southeast 495 570 43,000  Level Kansas City Center
Fri 06:57:16 PM 37.6689 -89.4625 124° Southeast 494 568 43,000  Level Kansas City Center
Fri 06:58:18 PM 37.5886 -89.3111 124° Southeast 492 566 43,000  Level Kansas City Center
Fri 06:59:20 PM 37.5106 -89.1675 124° Southeast 494 568 43,000  Level Kansas City Center
Fri 06:59:56 PM 37.4628 -89.0819 125° Southeast 491 565 43,000  Level Memphis Center
Fri 07:00:56 PM 37.3842 -88.9344 124° Southeast 496 571 43,000  Level Memphis Center
Fri 07:01:56 PM 37.3075 -88.7897 124° Southeast 501 577 43,000 200 Level Memphis Center
Fri 07:02:56 PM 37.2306 -88.6428 123° Southeast 501 577 43,400 500 Climbing Memphis Center
Fri 07:03:56 PM 37.1533 -88.5014 124° Southeast 501 577 44,000 550 Climbing Memphis Center
Fri 07:04:56 PM 37.0783 -88.3600 124° Southeast 496 571 44,500 500 Climbing Memphis Center
Fri 07:05:56 PM 37.0008 -88.2217 125° Southeast 490 564 45,000 250 Climbing Memphis Center
Fri 07:06:56 PM 36.9319 -88.0964 124° Southeast 490 564 45,000  Level Memphis Center
Fri 07:07:56 PM 36.8544 -87.9558 125° Southeast 490 564 45,000  Level Memphis Center
Fri 07:08:56 PM 36.7744 -87.8133 125° Southeast 490 564 45,000  Level Memphis Center
Fri 07:09:56 PM 36.6944 -87.6708 125° Southeast 495 570 45,000  Level Memphis Center
Fri 07:10:56 PM 36.5914 -87.5375 134° Southeast 489 563 45,000  Level Memphis Center
Fri 07:11:56 PM 36.4886 -87.4197 137° Southeast 494 568 45,000  Level Memphis Center
Fri 07:12:56 PM 36.3878 -87.3047 137° Southeast 494 568 45,000 -600 Level Memphis Center
Fri 07:13:56 PM 36.2828 -87.1850 137° Southeast 505 581 43,800 -1,450 Descending Memphis Center
Fri 07:14:56 PM 36.1797 -87.0708 138° Southeast 500 575 42,100 -1,700 Descending Memphis Center
Fri 07:15:56 PM 36.0806 -86.9542 136° Southeast 494 568 40,400 -1,050 Descending Memphis Center
Fri 07:16:56 PM 35.9817 -86.8481 139° Southeast 482 555 40,000 -850 Descending Memphis Center
Fri 07:17:56 PM 35.8711 -86.7758 152° Southeast 470 541 38,700 -1,350 Descending Memphis Center
Fri 07:18:56 PM 35.7608 -86.7142 156° South 442 509 37,300 -1,450 Descending Memphis Center
Fri 07:19:56 PM 35.6486 -86.6525 156° South 432 497 35,800 -1,310 Descending Memphis Center
Fri 07:22:13 PM 35.3828 -86.4969 154° Southeast 473 544 33,000 -1,036 Descending Atlanta Center
Fri 07:23:13 PM 35.2714 -86.4403 157° South 478 550 32,400 -1,400 Descending Atlanta Center
Fri 07:24:13 PM 35.1433 -86.3628 154° Southeast 472 543 30,200 -2,150 Descending Atlanta Center
Fri 07:25:13 PM 35.0197 -86.2908 155° Southeast 478 550 28,100 -2,050 Descending Atlanta Center
Fri 07:26:13 PM 34.8956 -86.2242 156° South 483 556 26,100 -2,000 Descending Atlanta Center
Fri 07:27:13 PM 34.7931 -86.1256 142° Southeast 478 550 24,100 -1,550 Descending Atlanta Center
Fri 07:28:13 PM 34.7264 -85.9847 120° Southeast 451 519 23,000 -950 Descending Atlanta Center
Fri 07:29:13 PM 34.6617 -85.8444 119° Southeast 470 541 22,200 -1,300 Descending Atlanta Center
Fri 07:30:13 PM 34.6031 -85.7269 121° Southeast 470 541 20,400 -1,900 Descending Atlanta Center
Fri 07:31:13 PM 34.5400 -85.5922 120° Southeast 464 534 18,400 -1,850 Descending Atlanta Center
Fri 07:32:13 PM 34.4811 -85.4625 119° Southeast 452 520 16,700 -1,800 Descending Atlanta Center
Fri 07:33:13 PM 34.4197 -85.3356 120° Southeast 445 512 14,800 -1,800 Descending Atlanta Center
Fri 07:34:13 PM 34.3667 -85.2217 119° Southeast 417 480 13,100 -1,550 Descending Atlanta Center
Fri 07:35:13 PM 34.3217 -85.1278 120° Southeast 349 402 11,700 -1,300 Descending Atlanta Center
Fri 07:36:13 PM 34.2786 -85.0369 120° Southeast 301 346 10,500 -1,150 Descending Atlanta Center
Fri 07:37:13 PM 34.2394 -84.9611 122° Southeast 270 311 9,400 -1,500 Descending Atlanta Center
Fri 07:38:13 PM 34.1792 -84.9253 154° Southeast 247 284 7,500 -1,850 Descending Atlanta Center
Fri 07:39:13 PM 34.1189 -84.8944 157° South 240 276 5,700 -1,550 Descending Atlanta Center
Fri 07:40:13 PM 34.0669 -84.8664 156° South 223 257 4,400 -1,200 Descending Atlanta Center
Fri 07:41:13 PM 34.0233 -84.8458 159° South 194 223 3,300 -750 Descending Atlanta Center
Fri 07:42:13 PM 34.0111 -84.7956 106° East 152 175 2,900 -250 Descending Atlanta Center
Fri 07:43:13 PM 34.0114 -84.7406 90° East 152 175 2,800 -250 Descending Atlanta Center
Fri 07:44:13 PM 34.0139 -84.6878 87° East 158 182 2,400 -500 Descending Atlanta Center
Fri 07:45:13 PM 34.0139 -84.6503 90° East 140 161 1,800 -600 Descending Atlanta Center

Login

Don't have an account? Register now (free) for customized features, flight alerts, and more!